sensor_id;sensor_type;location;lat;lon;timestamp;temperature;humidity
18508;DHT22;9383;50.928;12.116;2022-09-09T00:00:15;13.20;99.50
18508;DHT22;9383;50.928;12.116;2022-09-09T00:03:00;13.30;99.50
18508;DHT22;9383;50.928;12.116;2022-09-09T00:05:48;13.20;99.50
18508;DHT22;9383;50.928;12.116;2022-09-09T00:09:17;13.20;99.50
18508;DHT22;9383;50.928;12.116;2022-09-09T00:11:43;13.10;99.50
18508;DHT22;9383;50.928;12.116;2022-09-09T00:17:03;13.00;99.40
18508;DHT22;9383;50.928;12.116;2022-09-09T00:20:01;13.00;99.60
18508;DHT22;9383;50.928;12.116;2022-09-09T00:22:51;13.00;99.70
18508;DHT22;9383;50.928;12.116;2022-09-09T00:25:34;12.90;99.70
18508;DHT22;9383;50.928;12.116;2022-09-09T00:28:27;12.90;99.80
18508;DHT22;9383;50.928;12.116;2022-09-09T00:31:11;12.90;99.60
18508;DHT22;9383;50.928;12.116;2022-09-09T00:33:40;12.90;99.80
18508;DHT22;9383;50.928;12.116;2022-09-09T00:36:18;12.80;99.80
18508;DHT22;9383;50.928;12.116;2022-09-09T00:38:56;12.80;99.90
18508;DHT22;9383;50.928;12.116;2022-09-09T00:47:17;12.70;99.90
18508;DHT22;9383;50.928;12.116;2022-09-09T00:50:49;12.70;99.90
18508;DHT22;9383;50.928;12.116;2022-09-09T00:53:36;12.70;99.90
18508;DHT22;9383;50.928;12.116;2022-09-09T00:56:12;12.70;99.90
18508;DHT22;9383;50.928;12.116;2022-09-09T00:59:15;12.60;99.90
18508;DHT22;9383;50.928;12.116;2022-09-09T01:01:37;12.60;99.90
18508;DHT22;9383;50.928;12.116;2022-09-09T01:04:13;12.60;99.90
18508;DHT22;9383;50.928;12.116;2022-09-09T01:06:51;12.70;99.90
18508;DHT22;9383;50.928;12.116;2022-09-09T01:09:42;12.60;99.90
18508;DHT22;9383;50.928;12.116;2022-09-09T01:12:34;12.50;99.90
18508;DHT22;9383;50.928;12.116;2022-09-09T01:15:17;12.60;99.90
18508;DHT22;9383;50.928;12.116;2022-09-09T01:18:02;12.50;99.90
18508;DHT22;9383;50.928;12.116;2022-09-09T01:26:44;12.50;99.90
18508;DHT22;9383;50.928;12.116;2022-09-09T01:29:15;12.50;99.90
18508;DHT22;9383;50.928;12.116;2022-09-09T01:31:56;12.70;99.90
18508;DHT22;9383;50.928;12.116;2022-09-09T01:34:25;12.50;99.90
18508;DHT22;9383;50.928;12.116;2022-09-09T01:36:58;12.90;99.90
18508;DHT22;9383;50.928;12.116;2022-09-09T01:39:35;12.50;99.90
18508;DHT22;9383;50.928;12.116;2022-09-09T01:42:22;12.60;99.90
18508;DHT22;9383;50.928;12.116;2022-09-09T01:44:50;12.50;99.90
18508;DHT22;9383;50.928;12.116;2022-09-09T01:49:44;12.60;99.90
18508;DHT22;9383;50.928;12.116;2022-09-09T01:52:23;12.60;99.90
18508;DHT22;9383;50.928;12.116;2022-09-09T01:54:52;12.70;99.90
18508;DHT22;9383;50.928;12.116;2022-09-09T01:57:26;12.60;99.90
18508;DHT22;9383;50.928;12.116;2022-09-09T02:05:42;12.60;99.90
18508;DHT22;9383;50.928;12.116;2022-09-09T02:08:23;12.70;99.90
18508;DHT22;9383;50.928;12.116;2022-09-09T02:13:35;12.60;99.90
18508;DHT22;9383;50.928;12.116;2022-09-09T02:21:19;12.60;99.90
18508;DHT22;9383;50.928;12.116;2022-09-09T02:23:49;12.60;99.90
18508;DHT22;9383;50.928;12.116;2022-09-09T02:26:19;12.70;99.90
18508;DHT22;9383;50.928;12.116;2022-09-09T02:28:51;12.80;99.90
18508;DHT22;9383;50.928;12.116;2022-09-09T02:31:23;12.80;99.90
18508;DHT22;9383;50.928;12.116;2022-09-09T02:33:55;12.80;99.90
18508;DHT22;9383;50.928;12.116;2022-09-09T02:36:30;12.90;99.90
18508;DHT22;9383;50.928;12.116;2022-09-09T02:38:59;13.00;99.90
18508;DHT22;9383;50.928;12.116;2022-09-09T02:41:33;12.90;99.90
18508;DHT22;9383;50.928;12.116;2022-09-09T02:44:09;13.00;99.90
18508;DHT22;9383;50.928;12.116;2022-09-09T02:50:01;13.00;99.90
18508;DHT22;9383;50.928;12.116;2022-09-09T02:56:05;13.10;99.90
18508;DHT22;9383;50.928;12.116;2022-09-09T02:58:40;13.00;99.90
18508;DHT22;9383;50.928;12.116;2022-09-09T03:01:07;13.00;99.90
18508;DHT22;9383;50.928;12.116;2022-09-09T03:03:34;13.10;99.90
18508;DHT22;9383;50.928;12.116;2022-09-09T03:06:03;13.10;99.90
18508;DHT22;9383;50.928;12.116;2022-09-09T03:08:34;13.10;99.90
18508;DHT22;9383;50.928;12.116;2022-09-09T03:11:00;13.10;99.90
18508;DHT22;9383;50.928;12.116;2022-09-09T03:13:28;13.10;99.90
18508;DHT22;9383;50.928;12.116;2022-09-09T03:15:54;13.10;99.90
18508;DHT22;9383;50.928;12.116;2022-09-09T03:18:23;13.10;99.90
18508;DHT22;9383;50.928;12.116;2022-09-09T03:20:50;13.00;99.90
18508;DHT22;9383;50.928;12.116;2022-09-09T03:23:17;13.10;99.90
18508;DHT22;9383;50.928;12.116;2022-09-09T03:25:50;14.00;99.90
18508;DHT22;9383;50.928;12.116;2022-09-09T03:28:23;13.10;99.90
18508;DHT22;9383;50.928;12.116;2022-09-09T03:30:51;13.10;99.90
18508;DHT22;9383;50.928;12.116;2022-09-09T03:33:18;13.10;99.90
18508;DHT22;9383;50.928;12.116;2022-09-09T03:35:46;13.10;99.90
18508;DHT22;9383;50.928;12.116;2022-09-09T03:38:17;13.10;99.90
18508;DHT22;9383;50.928;12.116;2022-09-09T03:40:51;13.10;99.90
18508;DHT22;9383;50.928;12.116;2022-09-09T03:43:23;13.10;99.90
18508;DHT22;9383;50.928;12.116;2022-09-09T03:45:53;13.20;99.90
18508;DHT22;9383;50.928;12.116;2022-09-09T03:48:26;13.10;99.90
18508;DHT22;9383;50.928;12.116;2022-09-09T03:50:54;13.10;99.90
18508;DHT22;9383;50.928;12.116;2022-09-09T03:53:23;13.10;99.90
18508;DHT22;9383;50.928;12.116;2022-09-09T03:55:52;13.20;99.90
18508;DHT22;9383;50.928;12.116;2022-09-09T03:58:23;14.00;99.90
18508;DHT22;9383;50.928;12.116;2022-09-09T04:00:56;13.10;99.90
18508;DHT22;9383;50.928;12.116;2022-09-09T04:03:26;13.10;99.90
18508;DHT22;9383;50.928;12.116;2022-09-09T04:05:53;13.10;99.90
18508;DHT22;9383;50.928;12.116;2022-09-09T04:08:22;13.10;99.90
18508;DHT22;9383;50.928;12.116;2022-09-09T04:10:52;13.10;99.90
18508;DHT22;9383;50.928;12.116;2022-09-09T04:13:20;13.20;99.90
18508;DHT22;9383;50.928;12.116;2022-09-09T04:15:56;13.20;99.90
18508;DHT22;9383;50.928;12.116;2022-09-09T04:18:26;13.10;99.90
18508;DHT22;9383;50.928;12.116;2022-09-09T04:20:58;13.10;99.90
18508;DHT22;9383;50.928;12.116;2022-09-09T04:23:31;13.10;99.90
18508;DHT22;9383;50.928;12.116;2022-09-09T04:25:59;13.10;99.90
18508;DHT22;9383;50.928;12.116;2022-09-09T04:28:30;13.10;99.90
18508;DHT22;9383;50.928;12.116;2022-09-09T04:31:07;13.10;99.90
18508;DHT22;9383;50.928;12.116;2022-09-09T04:33:45;13.10;99.90
18508;DHT22;9383;50.928;12.116;2022-09-09T04:36:17;13.10;99.90
18508;DHT22;9383;50.928;12.116;2022-09-09T04:38:46;13.10;99.90
18508;DHT22;9383;50.928;12.116;2022-09-09T04:41:16;13.10;99.90
18508;DHT22;9383;50.928;12.116;2022-09-09T04:43:44;13.10;99.90
18508;DHT22;9383;50.928;12.116;2022-09-09T04:46:11;13.20;99.90
18508;DHT22;9383;50.928;12.116;2022-09-09T04:48:41;13.20;99.90
18508;DHT22;9383;50.928;12.116;2022-09-09T04:51:15;13.20;99.90
18508;DHT22;9383;50.928;12.116;2022-09-09T04:53:43;13.20;99.90
18508;DHT22;9383;50.928;12.116;2022-09-09T04:56:15;13.20;99.90
18508;DHT22;9383;50.928;12.116;2022-09-09T04:58:48;13.20;99.90
18508;DHT22;9383;50.928;12.116;2022-09-09T05:01:18;13.20;99.90
18508;DHT22;9383;50.928;12.116;2022-09-09T05:03:46;13.20;99.90
18508;DHT22;9383;50.928;12.116;2022-09-09T05:06:17;13.20;99.90
18508;DHT22;9383;50.928;12.116;2022-09-09T05:08:44;13.20;99.90
18508;DHT22;9383;50.928;12.116;2022-09-09T05:11:23;13.30;99.90
18508;DHT22;9383;50.928;12.116;2022-09-09T05:13:53;13.20;99.90
18508;DHT22;9383;50.928;12.116;2022-09-09T05:16:21;13.20;99.90
18508;DHT22;9383;50.928;12.116;2022-09-09T05:18:50;13.30;99.90
18508;DHT22;9383;50.928;12.116;2022-09-09T05:21:36;13.30;99.90
18508;DHT22;9383;50.928;12.116;2022-09-09T05:24:20;13.30;99.90
18508;DHT22;9383;50.928;12.116;2022-09-09T05:27:08;13.30;99.90
18508;DHT22;9383;50.928;12.116;2022-09-09T05:29:51;13.30;99.90
18508;DHT22;9383;50.928;12.116;2022-09-09T05:32:19;13.30;99.90
18508;DHT22;9383;50.928;12.116;2022-09-09T05:34:45;13.30;99.90
18508;DHT22;9383;50.928;12.116;2022-09-09T05:37:13;13.30;99.90
18508;DHT22;9383;50.928;12.116;2022-09-09T05:39:39;13.40;99.90
18508;DHT22;9383;50.928;12.116;2022-09-09T05:42:11;13.40;99.90
18508;DHT22;9383;50.928;12.116;2022-09-09T05:44:43;13.40;99.90
18508;DHT22;9383;50.928;12.116;2022-09-09T05:47:30;13.40;99.90
18508;DHT22;9383;50.928;12.116;2022-09-09T05:49:56;13.50;99.90
18508;DHT22;9383;50.928;12.116;2022-09-09T05:52:22;13.50;99.90
18508;DHT22;9383;50.928;12.116;2022-09-09T05:54:49;13.50;99.90
18508;DHT22;9383;50.928;12.116;2022-09-09T05:57:35;13.50;99.90
18508;DHT22;9383;50.928;12.116;2022-09-09T06:00:21;13.60;99.90
18508;DHT22;9383;50.928;12.116;2022-09-09T06:03:10;13.70;99.90
18508;DHT22;9383;50.928;12.116;2022-09-09T06:05:58;13.70;99.90
18508;DHT22;9383;50.928;12.116;2022-09-09T06:08:44;13.80;99.90
18508;DHT22;9383;50.928;12.116;2022-09-09T06:11:31;13.80;99.90
18508;DHT22;9383;50.928;12.116;2022-09-09T06:14:17;13.90;99.90
18508;DHT22;9383;50.928;12.116;2022-09-09T06:17:03;13.90;99.90
18508;DHT22;9383;50.928;12.116;2022-09-09T06:19:49;14.10;99.90
18508;DHT22;9383;50.928;12.116;2022-09-09T06:22:35;14.00;99.90
18508;DHT22;9383;50.928;12.116;2022-09-09T06:25:21;14.10;99.90
18508;DHT22;9383;50.928;12.116;2022-09-09T06:28:07;14.20;99.90
18508;DHT22;9383;50.928;12.116;2022-09-09T06:30:37;14.30;99.90
18508;DHT22;9383;50.928;12.116;2022-09-09T06:33:04;14.20;99.90
18508;DHT22;9383;50.928;12.116;2022-09-09T06:35:54;14.30;99.90
18508;DHT22;9383;50.928;12.116;2022-09-09T06:38:21;14.30;99.90
18508;DHT22;9383;50.928;12.116;2022-09-09T06:40:56;14.40;99.90
18508;DHT22;9383;50.928;12.116;2022-09-09T06:43:44;14.40;99.90
18508;DHT22;9383;50.928;12.116;2022-09-09T06:46:16;14.50;99.90
18508;DHT22;9383;50.928;12.116;2022-09-09T06:48:50;14.50;99.90
18508;DHT22;9383;50.928;12.116;2022-09-09T06:51:37;14.60;99.90
18508;DHT22;9383;50.928;12.116;2022-09-09T06:54:28;14.70;99.90
18508;DHT22;9383;50.928;12.116;2022-09-09T06:57:13;14.70;99.90
18508;DHT22;9383;50.928;12.116;2022-09-09T06:59:59;14.80;99.90
18508;DHT22;9383;50.928;12.116;2022-09-09T07:02:26;14.80;99.90
18508;DHT22;9383;50.928;12.116;2022-09-09T07:04:52;14.90;99.90
18508;DHT22;9383;50.928;12.116;2022-09-09T07:07:18;14.90;99.80
18508;DHT22;9383;50.928;12.116;2022-09-09T07:09:47;15.00;99.80
18508;DHT22;9383;50.928;12.116;2022-09-09T07:12:27;15.00;99.70
18508;DHT22;9383;50.928;12.116;2022-09-09T07:15:13;15.00;99.60
18508;DHT22;9383;50.928;12.116;2022-09-09T07:18:01;15.10;99.60
18508;DHT22;9383;50.928;12.116;2022-09-09T07:20:54;15.10;99.60
18508;DHT22;9383;50.928;12.116;2022-09-09T07:23:24;15.20;99.50
18508;DHT22;9383;50.928;12.116;2022-09-09T07:25:50;15.20;99.50
18508;DHT22;9383;50.928;12.116;2022-09-09T07:28:17;15.30;99.60
18508;DHT22;9383;50.928;12.116;2022-09-09T07:30:43;14.40;99.30
18508;DHT22;9383;50.928;12.116;2022-09-09T07:33:10;15.40;99.40
18508;DHT22;9383;50.928;12.116;2022-09-09T07:35:36;15.40;99.10
18508;DHT22;9383;50.928;12.116;2022-09-09T07:38:05;15.50;99.60
18508;DHT22;9383;50.928;12.116;2022-09-09T07:40:44;15.60;99.40
18508;DHT22;9383;50.928;12.116;2022-09-09T07:43:30;15.70;99.30
18508;DHT22;9383;50.928;12.116;2022-09-09T07:46:00;15.70;99.20
18508;DHT22;9383;50.928;12.116;2022-09-09T07:48:29;15.80;99.00
18508;DHT22;9383;50.928;12.116;2022-09-09T07:51:16;15.90;98.80
18508;DHT22;9383;50.928;12.116;2022-09-09T07:53:46;15.90;98.80
18508;DHT22;9383;50.928;12.116;2022-09-09T07:56:20;16.10;98.90
18508;DHT22;9383;50.928;12.116;2022-09-09T07:58:57;16.00;98.30
18508;DHT22;9383;50.928;12.116;2022-09-09T08:01:48;16.10;98.40
18508;DHT22;9383;50.928;12.116;2022-09-09T08:04:19;16.20;98.40
18508;DHT22;9383;50.928;12.116;2022-09-09T08:06:57;16.20;98.30
18508;DHT22;9383;50.928;12.116;2022-09-09T08:17:05;16.50;97.90
18508;DHT22;9383;50.928;12.116;2022-09-09T08:19:40;16.50;97.80
18508;DHT22;9383;50.928;12.116;2022-09-09T08:22:06;16.50;97.70
18508;DHT22;9383;50.928;12.116;2022-09-09T08:24:33;16.60;97.30
18508;DHT22;9383;50.928;12.116;2022-09-09T08:26:59;16.70;97.30
18508;DHT22;9383;50.928;12.116;2022-09-09T08:29:45;16.70;97.20
18508;DHT22;9383;50.928;12.116;2022-09-09T08:32:13;16.80;97.40
18508;DHT22;9383;50.928;12.116;2022-09-09T08:34:39;16.80;97.30
18508;DHT22;9383;50.928;12.116;2022-09-09T08:37:06;16.90;97.40
18508;DHT22;9383;50.928;12.116;2022-09-09T08:39:34;16.90;97.50
18508;DHT22;9383;50.928;12.116;2022-09-09T08:45:25;17.20;97.50
18508;DHT22;9383;50.928;12.116;2022-09-09T08:52:23;17.30;96.50
18508;DHT22;9383;50.928;12.116;2022-09-09T08:58:17;17.40;97.00
18508;DHT22;9383;50.928;12.116;2022-09-09T09:16:26;18.00;96.30
18508;DHT22;9383;50.928;12.116;2022-09-09T09:19:00;18.10;95.60
18508;DHT22;9383;50.928;12.116;2022-09-09T09:21:43;18.20;95.70
18508;DHT22;9383;50.928;12.116;2022-09-09T09:24:50;18.30;96.10
18508;DHT22;9383;50.928;12.116;2022-09-09T09:27:33;18.40;95.70
18508;DHT22;9383;50.928;12.116;2022-09-09T09:30:16;18.50;95.50
18508;DHT22;9383;50.928;12.116;2022-09-09T09:32:54;18.60;95.10
18508;DHT22;9383;50.928;12.116;2022-09-09T09:35:28;18.80;95.10
18508;DHT22;9383;50.928;12.116;2022-09-09T09:37:55;18.90;94.60
18508;DHT22;9383;50.928;12.116;2022-09-09T09:40:58;19.10;93.90
18508;DHT22;9383;50.928;12.116;2022-09-09T09:43:29;19.20;92.80
18508;DHT22;9383;50.928;12.116;2022-09-09T09:45:58;19.30;92.80
18508;DHT22;9383;50.928;12.116;2022-09-09T09:48:34;19.40;92.90
18508;DHT22;9383;50.928;12.116;2022-09-09T09:51:08;19.60;92.60
18508;DHT22;9383;50.928;12.116;2022-09-09T09:53:38;19.70;92.50
18508;DHT22;9383;50.928;12.116;2022-09-09T09:56:13;19.80;92.00
18508;DHT22;9383;50.928;12.116;2022-09-09T10:01:29;20.00;90.90
18508;DHT22;9383;50.928;12.116;2022-09-09T10:04:18;20.00;91.60
18508;DHT22;9383;50.928;12.116;2022-09-09T10:06:51;20.10;91.40
18508;DHT22;9383;50.928;12.116;2022-09-09T10:09:29;20.20;91.40
18508;DHT22;9383;50.928;12.116;2022-09-09T10:12:07;20.30;91.50
18508;DHT22;9383;50.928;12.116;2022-09-09T10:28:04;20.60;87.40
18508;DHT22;9383;50.928;12.116;2022-09-09T10:33:51;20.70;89.10
18508;DHT22;9383;50.928;12.116;2022-09-09T10:36:28;20.70;88.40
18508;DHT22;9383;50.928;12.116;2022-09-09T10:39:33;20.70;88.00
18508;DHT22;9383;50.928;12.116;2022-09-09T10:42:06;20.80;89.00
18508;DHT22;9383;50.928;12.116;2022-09-09T10:44:54;20.90;89.00
18508;DHT22;9383;50.928;12.116;2022-09-09T10:47:42;20.90;89.70
18508;DHT22;9383;50.928;12.116;2022-09-09T10:50:50;21.00;88.40
18508;DHT22;9383;50.928;12.116;2022-09-09T10:53:30;21.10;87.50
18508;DHT22;9383;50.928;12.116;2022-09-09T10:56:12;21.10;85.10
18508;DHT22;9383;50.928;12.116;2022-09-09T11:01:29;21.10;84.70
18508;DHT22;9383;50.928;12.116;2022-09-09T11:04:31;21.10;83.70
18508;DHT22;9383;50.928;12.116;2022-09-09T11:07:10;21.10;81.50
18508;DHT22;9383;50.928;12.116;2022-09-09T11:09:48;21.00;82.50
18508;DHT22;9383;50.928;12.116;2022-09-09T11:12:20;21.00;83.20
18508;DHT22;9383;50.928;12.116;2022-09-09T11:15:04;21.00;83.90
18508;DHT22;9383;50.928;12.116;2022-09-09T11:18:01;21.00;81.80
18508;DHT22;9383;50.928;12.116;2022-09-09T11:20:32;21.00;82.40
18508;DHT22;9383;50.928;12.116;2022-09-09T11:23:11;21.00;83.50
18508;DHT22;9383;50.928;12.116;2022-09-09T11:25:57;21.00;83.60
18508;DHT22;9383;50.928;12.116;2022-09-09T11:28:52;21.00;83.00
18508;DHT22;9383;50.928;12.116;2022-09-09T11:38:24;21.20;86.10
18508;DHT22;9383;50.928;12.116;2022-09-09T11:41:05;21.30;87.00
18508;DHT22;9383;50.928;12.116;2022-09-09T11:43:44;21.30;86.40
18508;DHT22;9383;50.928;12.116;2022-09-09T11:46:15;21.40;85.80
18508;DHT22;9383;50.928;12.116;2022-09-09T11:48:45;21.40;82.00
18508;DHT22;9383;50.928;12.116;2022-09-09T11:51:35;21.40;81.00
18508;DHT22;9383;50.928;12.116;2022-09-09T11:54:29;21.40;81.90
18508;DHT22;9383;50.928;12.116;2022-09-09T11:56:57;21.50;81.40
18508;DHT22;9383;50.928;12.116;2022-09-09T11:59:28;21.50;81.00
18508;DHT22;9383;50.928;12.116;2022-09-09T12:02:02;21.40;80.60
18508;DHT22;9383;50.928;12.116;2022-09-09T12:04:56;21.40;81.90
18508;DHT22;9383;50.928;12.116;2022-09-09T12:07:36;21.50;82.60
18508;DHT22;9383;50.928;12.116;2022-09-09T12:10:26;21.50;80.60
18508;DHT22;9383;50.928;12.116;2022-09-09T12:13:18;21.50;81.30
18508;DHT22;9383;50.928;12.116;2022-09-09T12:15:59;21.50;81.20
18508;DHT22;9383;50.928;12.116;2022-09-09T12:18:38;21.50;81.40
18508;DHT22;9383;50.928;12.116;2022-09-09T12:21:26;21.50;81.20
18508;DHT22;9383;50.928;12.116;2022-09-09T12:24:35;21.60;80.70
18508;DHT22;9383;50.928;12.116;2022-09-09T12:27:28;21.60;79.80
18508;DHT22;9383;50.928;12.116;2022-09-09T12:30:14;21.60;80.50
18508;DHT22;9383;50.928;12.116;2022-09-09T12:32:41;21.60;79.90
18508;DHT22;9383;50.928;12.116;2022-09-09T12:35:29;21.60;79.60
18508;DHT22;9383;50.928;12.116;2022-09-09T12:38:01;21.70;80.40
18508;DHT22;9383;50.928;12.116;2022-09-09T12:40:31;21.70;80.00
18508;DHT22;9383;50.928;12.116;2022-09-09T12:43:02;21.70;80.50
18508;DHT22;9383;50.928;12.116;2022-09-09T12:45:49;21.70;81.40
18508;DHT22;9383;50.928;12.116;2022-09-09T12:48:32;21.70;78.30
18508;DHT22;9383;50.928;12.116;2022-09-09T12:51:05;21.70;78.50
18508;DHT22;9383;50.928;12.116;2022-09-09T12:53:41;21.70;78.80
18508;DHT22;9383;50.928;12.116;2022-09-09T12:56:18;21.70;79.50
18508;DHT22;9383;50.928;12.116;2022-09-09T12:58:49;21.70;79.50
18508;DHT22;9383;50.928;12.116;2022-09-09T13:01:28;21.70;80.40
18508;DHT22;9383;50.928;12.116;2022-09-09T13:03:56;21.70;80.50
18508;DHT22;9383;50.928;12.116;2022-09-09T13:06:28;21.80;79.50
18508;DHT22;9383;50.928;12.116;2022-09-09T13:09:03;21.80;77.20
18508;DHT22;9383;50.928;12.116;2022-09-09T13:11:40;21.80;74.30
18508;DHT22;9383;50.928;12.116;2022-09-09T13:14:19;21.80;73.30
18508;DHT22;9383;50.928;12.116;2022-09-09T13:16:57;21.80;72.90
18508;DHT22;9383;50.928;12.116;2022-09-09T13:19:25;21.90;74.60
18508;DHT22;9383;50.928;12.116;2022-09-09T13:21:54;21.80;75.30
18508;DHT22;9383;50.928;12.116;2022-09-09T13:24:34;21.90;75.40
18508;DHT22;9383;50.928;12.116;2022-09-09T13:27:04;21.90;75.50
18508;DHT22;9383;50.928;12.116;2022-09-09T13:29:53;21.90;74.30
18508;DHT22;9383;50.928;12.116;2022-09-09T13:32:23;21.90;72.80
18508;DHT22;9383;50.928;12.116;2022-09-09T13:34:58;22.00;73.60
18508;DHT22;9383;50.928;12.116;2022-09-09T13:37:37;21.90;72.80
18508;DHT22;9383;50.928;12.116;2022-09-09T13:40:17;21.90;73.80
18508;DHT22;9383;50.928;12.116;2022-09-09T13:42:47;21.90;74.10
18508;DHT22;9383;50.928;12.116;2022-09-09T13:45:21;22.00;74.80
18508;DHT22;9383;50.928;12.116;2022-09-09T13:47:49;22.00;75.50
18508;DHT22;9383;50.928;12.116;2022-09-09T13:50:29;22.00;74.40
18508;DHT22;9383;50.928;12.116;2022-09-09T13:52:59;22.00;73.60
18508;DHT22;9383;50.928;12.116;2022-09-09T13:55:30;22.00;72.80
18508;DHT22;9383;50.928;12.116;2022-09-09T13:58:01;23.10;73.30
18508;DHT22;9383;50.928;12.116;2022-09-09T14:00:34;22.00;73.30
18508;DHT22;9383;50.928;12.116;2022-09-09T14:03:00;22.00;74.70
18508;DHT22;9383;50.928;12.116;2022-09-09T14:05:31;22.00;74.80
18508;DHT22;9383;50.928;12.116;2022-09-09T14:08:02;22.00;75.40
18508;DHT22;9383;50.928;12.116;2022-09-09T14:10:34;22.00;75.70
18508;DHT22;9383;50.928;12.116;2022-09-09T14:13:03;22.00;75.90
18508;DHT22;9383;50.928;12.116;2022-09-09T14:15:30;22.00;76.40
18508;DHT22;9383;50.928;12.116;2022-09-09T14:20:28;22.00;76.10
18508;DHT22;9383;50.928;12.116;2022-09-09T14:22:55;21.90;76.60
18508;DHT22;9383;50.928;12.116;2022-09-09T14:25:26;22.00;77.50
18508;DHT22;9383;50.928;12.116;2022-09-09T14:27:54;21.90;76.90
18508;DHT22;9383;50.928;12.116;2022-09-09T14:30:20;21.90;76.90
18508;DHT22;9383;50.928;12.116;2022-09-09T14:32:47;21.90;77.00
18508;DHT22;9383;50.928;12.116;2022-09-09T14:35:13;21.90;77.10
18508;DHT22;9383;50.928;12.116;2022-09-09T14:37:51;21.90;77.40
18508;DHT22;9383;50.928;12.116;2022-09-09T14:40:19;22.00;77.40
18508;DHT22;9383;50.928;12.116;2022-09-09T14:42:52;21.90;75.60
18508;DHT22;9383;50.928;12.116;2022-09-09T14:45:19;21.90;76.40
18508;DHT22;9383;50.928;12.116;2022-09-09T14:47:49;22.00;76.80
18508;DHT22;9383;50.928;12.116;2022-09-09T14:50:18;22.80;76.80
18508;DHT22;9383;50.928;12.116;2022-09-09T14:52:46;22.00;74.80
18508;DHT22;9383;50.928;12.116;2022-09-09T14:55:14;21.90;73.50
18508;DHT22;9383;50.928;12.116;2022-09-09T14:57:41;21.90;73.70
18508;DHT22;9383;50.928;12.116;2022-09-09T15:00:09;21.90;74.20
18508;DHT22;9383;50.928;12.116;2022-09-09T15:02:36;21.80;73.90
18508;DHT22;9383;50.928;12.116;2022-09-09T15:05:15;21.80;73.60
18508;DHT22;9383;50.928;12.116;2022-09-09T15:07:43;21.80;71.20
18508;DHT22;9383;50.928;12.116;2022-09-09T15:10:12;21.70;69.60
18508;DHT22;9383;50.928;12.116;2022-09-09T15:12:40;21.70;70.90
18508;DHT22;9383;50.928;12.116;2022-09-09T15:15:14;21.70;70.30
18508;DHT22;9383;50.928;12.116;2022-09-09T15:17:49;21.70;70.60
18508;DHT22;9383;50.928;12.116;2022-09-09T15:20:24;21.60;69.70
18508;DHT22;9383;50.928;12.116;2022-09-09T15:22:50;21.60;70.60
18508;DHT22;9383;50.928;12.116;2022-09-09T15:25:38;21.50;71.80
18508;DHT22;9383;50.928;12.116;2022-09-09T15:28:05;21.50;70.70
18508;DHT22;9383;50.928;12.116;2022-09-09T15:30:53;21.50;69.90
18508;DHT22;9383;50.928;12.116;2022-09-09T15:33:21;21.50;69.20
18508;DHT22;9383;50.928;12.116;2022-09-09T15:36:15;21.50;69.00
18508;DHT22;9383;50.928;12.116;2022-09-09T15:38:46;21.40;69.90
18508;DHT22;9383;50.928;12.116;2022-09-09T15:41:13;21.30;69.10
18508;DHT22;9383;50.928;12.116;2022-09-09T15:43:47;21.30;68.70
18508;DHT22;9383;50.928;12.116;2022-09-09T15:48:54;21.30;70.30
18508;DHT22;9383;50.928;12.116;2022-09-09T15:51:58;21.20;71.00
18508;DHT22;9383;50.928;12.116;2022-09-09T15:54:47;21.20;71.60
18508;DHT22;9383;50.928;12.116;2022-09-09T15:57:17;21.10;71.50
18508;DHT22;9383;50.928;12.116;2022-09-09T15:59:44;21.10;72.20
18508;DHT22;9383;50.928;12.116;2022-09-09T16:02:11;21.10;72.20
18508;DHT22;9383;50.928;12.116;2022-09-09T16:09:35;21.00;72.70
18508;DHT22;9383;50.928;12.116;2022-09-09T16:12:04;21.00;73.00
18508;DHT22;9383;50.928;12.116;2022-09-09T16:14:35;21.60;73.10
18508;DHT22;9383;50.928;12.116;2022-09-09T16:17:03;20.90;71.40
18508;DHT22;9383;50.928;12.116;2022-09-09T16:19:31;20.90;71.60
18508;DHT22;9383;50.928;12.116;2022-09-09T16:22:04;20.90;71.40
18508;DHT22;9383;50.928;12.116;2022-09-09T16:24:33;20.80;70.90
18508;DHT22;9383;50.928;12.116;2022-09-09T16:27:00;20.80;71.20
18508;DHT22;9383;50.928;12.116;2022-09-09T16:29:26;20.80;71.80
18508;DHT22;9383;50.928;12.116;2022-09-09T16:32:12;20.60;71.00
18508;DHT22;9383;50.928;12.116;2022-09-09T16:34:40;20.70;72.20
18508;DHT22;9383;50.928;12.116;2022-09-09T16:37:29;20.60;72.50
18508;DHT22;9383;50.928;12.116;2022-09-09T16:39:55;20.60;72.30
18508;DHT22;9383;50.928;12.116;2022-09-09T16:42:24;20.50;72.70
18508;DHT22;9383;50.928;12.116;2022-09-09T16:44:50;20.50;73.10
18508;DHT22;9383;50.928;12.116;2022-09-09T16:47:16;20.40;73.30
18508;DHT22;9383;50.928;12.116;2022-09-09T16:49:56;20.40;73.80
18508;DHT22;9383;50.928;12.116;2022-09-09T16:52:25;20.40;74.00
18508;DHT22;9383;50.928;12.116;2022-09-09T16:54:53;20.40;73.50
18508;DHT22;9383;50.928;12.116;2022-09-09T16:57:38;20.30;73.20
18508;DHT22;9383;50.928;12.116;2022-09-09T17:00:24;20.20;74.80
18508;DHT22;9383;50.928;12.116;2022-09-09T17:03:14;20.20;74.90
18508;DHT22;9383;50.928;12.116;2022-09-09T17:05:44;20.10;76.40
18508;DHT22;9383;50.928;12.116;2022-09-09T17:08:14;20.10;77.50
18508;DHT22;9383;50.928;12.116;2022-09-09T17:10:42;20.00;78.10
18508;DHT22;9383;50.928;12.116;2022-09-09T17:13:27;20.00;79.00
18508;DHT22;9383;50.928;12.116;2022-09-09T17:16:14;19.90;80.10
18508;DHT22;9383;50.928;12.116;2022-09-09T17:18:51;19.80;80.80
18508;DHT22;9383;50.928;12.116;2022-09-09T17:21:38;19.80;81.90
18508;DHT22;9383;50.928;12.116;2022-09-09T17:24:25;19.70;82.90
18508;DHT22;9383;50.928;12.116;2022-09-09T17:26:54;19.60;82.80
18508;DHT22;9383;50.928;12.116;2022-09-09T17:29:22;19.60;83.20
18508;DHT22;9383;50.928;12.116;2022-09-09T17:31:48;19.50;83.00
18508;DHT22;9383;50.928;12.116;2022-09-09T17:39:20;19.30;83.60
18508;DHT22;9383;50.928;12.116;2022-09-09T17:42:05;19.30;83.80
18508;DHT22;9383;50.928;12.116;2022-09-09T17:44:36;19.20;84.20
18508;DHT22;9383;50.928;12.116;2022-09-09T17:47:15;19.20;85.20
18508;DHT22;9383;50.928;12.116;2022-09-09T17:49:41;19.10;85.50
18508;DHT22;9383;50.928;12.116;2022-09-09T17:52:27;19.10;85.60
18508;DHT22;9383;50.928;12.116;2022-09-09T17:54:55;18.90;86.00
18508;DHT22;9383;50.928;12.116;2022-09-09T17:57:24;18.90;86.20
18508;DHT22;9383;50.928;12.116;2022-09-09T18:00:07;18.90;86.90
18508;DHT22;9383;50.928;12.116;2022-09-09T18:02:36;18.80;87.00
18508;DHT22;9383;50.928;12.116;2022-09-09T18:05:04;18.80;87.10
18508;DHT22;9383;50.928;12.116;2022-09-09T18:07:50;18.70;87.30
18508;DHT22;9383;50.928;12.116;2022-09-09T18:10:38;18.70;87.50
18508;DHT22;9383;50.928;12.116;2022-09-09T18:13:16;18.60;87.60
18508;DHT22;9383;50.928;12.116;2022-09-09T18:15:42;18.60;88.10
18508;DHT22;9383;50.928;12.116;2022-09-09T18:18:19;18.50;88.40